CYZE

Gore Bay Manitoulin Airport

Gore Bay, Ontario, Canada
TAF CYZE 211339Z 2114/2122 10012KT P6SM BKN025 TEMPO 2114/2120 5SM -SHRA BR SCT008 BKN020 PROB30 2116/2120 2SM TSRA BR BKN008 OVC040CB FM212000 10012KT P6SM BKN050 RMK FCST BASED ON AUTO OBS. NXT FCST BY 212000Z
Issued Valid From Valid To
Jul-21 @ 13:39 UTC
(4 hours ago)
Jul-21 @ 14:00 UTC
(4 hours ago)
Jul-21 @ 22:00 UTC
(in 4 hours)
Jul-21 @ 14:00 to Jul-21 @ 20:00
TAF CYZE 211339Z 2114/2122 10012KT P6SM BKN025
Wind Visibility Clouds
100° at 12 knots Greater than 6 miles
  • Broken at 2,500' AGL
Temporary Jul-21 @ 14:00 to Jul-21 @ 20:00
TEMPO 2114/2120 5SM -SHRA BR SCT008 BKN020
Visibility Clouds Conditions
5 miles
  • Scattered at 800' AGL
  • Broken at 2,000' AGL
  • Light Rain
  • Mist
Probable  (Probability 30%) Jul-21 @ 16:00 to Jul-21 @ 20:00
PROB30 2116/2120 2SM TSRA BR BKN008 OVC040CB
Visibility Clouds Conditions
2 miles
  • Broken at 800' AGL
  • Overcast at 4,000' AGL
  • Thunderstorm
  • Rain
  • Mist
From Jul-21 @ 20:00 to Jul-21 @ 22:00
FM212000 10012KT P6SM BKN050 RMK FCST BASED ON AUTO OBS. NXT FCST BY 212000Z
Wind Visibility Clouds
100° at 12 knots Greater than 6 miles
  • Broken at 5,000' AGL
TAF CYZE 211339Z 2114/2122 10012KT P6SM BKN025 TEMPO 2114/2120 5SM -SHRA BR SCT008 BKN020 PROB30 2116/2120 2SM TSRA BR BKN008 OVC040CB FM212000 10012KT P6SM BKN050 RMK FCST BASED ON AUTO OBS. NXT FCST BY 212000Z
Issued Jul-21 @ 13:39 UTC
(4 hours ago)
Valid From Jul-21 @ 14:00 UTC
(4 hours ago)
Valid To Jul-21 @ 22:00 UTC
(in 4 hours)
Jul-21 @ 14:00 - Jul-21 @ 20:00
Wind Visibility
100° at 12 knots Greater than 6 miles
Clouds
  • Broken at 2,500' AGL
Temporary Jul-21 @ 14:00 - Jul-21 @ 20:00
Clouds
  • Scattered at 800' AGL
  • Broken at 2,000' AGL
Conditions
  • Light Rain
  • Mist
Probability 30% Probable Jul-21 @ 16:00 - Jul-21 @ 20:00
Clouds
  • Broken at 800' AGL
  • Overcast at 4,000' AGL
Conditions
  • Thunderstorm
  • Rain
  • Mist
From Jul-21 @ 20:00 - Jul-21 @ 22:00
Wind Visibility
100° at 12 knots Greater than 6 miles
Clouds
  • Broken at 5,000' AGL